sensor_id;sensor_type;location;lat;lon;timestamp;P1;durP1;ratioP1;P2;durP2;ratioP2
15848;SDS011;8024;48.708;9.394;2022-07-29T00:01:48;7.70;;;6.90;;
15848;SDS011;8024;48.708;9.394;2022-07-29T00:04:17;7.20;;;6.50;;
15848;SDS011;8024;48.708;9.394;2022-07-29T00:06:44;8.15;;;7.35;;
15848;SDS011;8024;48.708;9.394;2022-07-29T00:09:12;6.97;;;6.40;;
15848;SDS011;8024;48.708;9.394;2022-07-29T00:11:40;7.70;;;7.10;;
15848;SDS011;8024;48.708;9.394;2022-07-29T00:14:08;7.87;;;7.17;;
15848;SDS011;8024;48.708;9.394;2022-07-29T00:16:35;9.90;;;8.20;;
15848;SDS011;8024;48.708;9.394;2022-07-29T00:19:03;8.67;;;7.17;;
15848;SDS011;8024;48.708;9.394;2022-07-29T00:21:30;8.57;;;7.80;;
15848;SDS011;8024;48.708;9.394;2022-07-29T00:23:57;8.57;;;7.83;;
15848;SDS011;8024;48.708;9.394;2022-07-29T00:26:25;9.27;;;7.57;;
15848;SDS011;8024;48.708;9.394;2022-07-29T00:28:58;9.85;;;7.82;;
15848;SDS011;8024;48.708;9.394;2022-07-29T00:31:25;8.17;;;7.40;;
15848;SDS011;8024;48.708;9.394;2022-07-29T00:33:52;7.57;;;6.83;;
15848;SDS011;8024;48.708;9.394;2022-07-29T00:36:20;7.97;;;7.17;;
15848;SDS011;8024;48.708;9.394;2022-07-29T00:38:46;8.93;;;7.60;;
15848;SDS011;8024;48.708;9.394;2022-07-29T00:41:13;7.83;;;7.20;;
15848;SDS011;8024;48.708;9.394;2022-07-29T00:43:40;7.73;;;7.23;;
15848;SDS011;8024;48.708;9.394;2022-07-29T00:46:09;9.37;;;7.73;;
15848;SDS011;8024;48.708;9.394;2022-07-29T00:48:37;8.43;;;7.57;;
15848;SDS011;8024;48.708;9.394;2022-07-29T00:51:04;9.07;;;8.13;;
15848;SDS011;8024;48.708;9.394;2022-07-29T00:53:35;8.70;;;7.90;;
15848;SDS011;8024;48.708;9.394;2022-07-29T00:56:02;8.83;;;8.07;;
15848;SDS011;8024;48.708;9.394;2022-07-29T00:58:30;9.20;;;8.20;;
15848;SDS011;8024;48.708;9.394;2022-07-29T01:00:58;7.67;;;7.00;;
15848;SDS011;8024;48.708;9.394;2022-07-29T01:03:27;9.47;;;8.07;;
15848;SDS011;8024;48.708;9.394;2022-07-29T01:05:54;8.57;;;7.87;;
15848;SDS011;8024;48.708;9.394;2022-07-29T01:08:21;8.17;;;7.43;;
15848;SDS011;8024;48.708;9.394;2022-07-29T01:10:50;9.38;;;8.38;;
15848;SDS011;8024;48.708;9.394;2022-07-29T01:13:18;10.20;;;8.60;;
15848;SDS011;8024;48.708;9.394;2022-07-29T01:15:47;8.83;;;8.00;;
15848;SDS011;8024;48.708;9.394;2022-07-29T01:18:20;9.37;;;8.50;;
15848;SDS011;8024;48.708;9.394;2022-07-29T01:20:58;9.97;;;9.00;;
15848;SDS011;8024;48.708;9.394;2022-07-29T01:26:45;9.10;;;8.13;;
15848;SDS011;8024;48.708;9.394;2022-07-29T01:29:20;10.23;;;9.33;;
15848;SDS011;8024;48.708;9.394;2022-07-29T01:31:51;10.33;;;9.27;;
15848;SDS011;8024;48.708;9.394;2022-07-29T01:34:23;11.60;;;8.57;;
15848;SDS011;8024;48.708;9.394;2022-07-29T01:36:57;9.57;;;8.57;;
15848;SDS011;8024;48.708;9.394;2022-07-29T01:39:30;9.43;;;8.53;;
15848;SDS011;8024;48.708;9.394;2022-07-29T01:42:05;9.50;;;8.70;;
15848;SDS011;8024;48.708;9.394;2022-07-29T01:44:41;10.40;;;8.47;;
15848;SDS011;8024;48.708;9.394;2022-07-29T01:47:17;8.10;;;7.40;;
15848;SDS011;8024;48.708;9.394;2022-07-29T01:49:48;8.90;;;7.73;;
15848;SDS011;8024;48.708;9.394;2022-07-29T01:52:19;10.83;;;7.47;;
15848;SDS011;8024;48.708;9.394;2022-07-29T01:54:51;9.00;;;8.07;;
15848;SDS011;8024;48.708;9.394;2022-07-29T01:57:21;9.70;;;7.43;;
15848;SDS011;8024;48.708;9.394;2022-07-29T01:59:54;8.57;;;7.67;;
15848;SDS011;8024;48.708;9.394;2022-07-29T02:02:24;11.53;;;8.77;;
15848;SDS011;8024;48.708;9.394;2022-07-29T02:04:54;8.97;;;8.13;;
15848;SDS011;8024;48.708;9.394;2022-07-29T02:07:22;12.80;;;8.57;;
15848;SDS011;8024;48.708;9.394;2022-07-29T02:09:51;9.43;;;8.53;;
15848;SDS011;8024;48.708;9.394;2022-07-29T02:12:19;10.07;;;8.13;;
15848;SDS011;8024;48.708;9.394;2022-07-29T02:14:48;10.03;;;8.40;;
15848;SDS011;8024;48.708;9.394;2022-07-29T02:17:21;9.80;;;8.83;;
15848;SDS011;8024;48.708;9.394;2022-07-29T02:19:51;12.30;;;8.30;;
15848;SDS011;8024;48.708;9.394;2022-07-29T02:22:21;9.33;;;7.90;;
15848;SDS011;8024;48.708;9.394;2022-07-29T02:24:49;15.83;;;7.70;;
15848;SDS011;8024;48.708;9.394;2022-07-29T02:27:20;8.15;;;7.40;;
15848;SDS011;8024;48.708;9.394;2022-07-29T02:29:49;9.30;;;8.40;;
15848;SDS011;8024;48.708;9.394;2022-07-29T02:32:19;8.60;;;7.83;;
15848;SDS011;8024;48.708;9.394;2022-07-29T02:34:48;9.10;;;8.27;;
15848;SDS011;8024;48.708;9.394;2022-07-29T02:37:17;9.27;;;8.47;;
15848;SDS011;8024;48.708;9.394;2022-07-29T02:39:44;10.20;;;9.40;;
15848;SDS011;8024;48.708;9.394;2022-07-29T02:42:15;10.20;;;9.23;;
15848;SDS011;8024;48.708;9.394;2022-07-29T02:44:43;12.80;;;8.77;;
15848;SDS011;8024;48.708;9.394;2022-07-29T02:47:12;11.47;;;8.40;;
15848;SDS011;8024;48.708;9.394;2022-07-29T02:49:47;13.37;;;8.00;;
15848;SDS011;8024;48.708;9.394;2022-07-29T02:52:20;12.80;;;8.83;;
15848;SDS011;8024;48.708;9.394;2022-07-29T02:54:54;9.57;;;8.53;;
15848;SDS011;8024;48.708;9.394;2022-07-29T02:57:25;11.43;;;8.50;;
15848;SDS011;8024;48.708;9.394;2022-07-29T02:59:59;10.43;;;8.43;;
15848;SDS011;8024;48.708;9.394;2022-07-29T03:02:31;9.07;;;8.20;;
15848;SDS011;8024;48.708;9.394;2022-07-29T03:05:02;8.87;;;8.13;;
15848;SDS011;8024;48.708;9.394;2022-07-29T03:07:31;11.03;;;9.50;;
15848;SDS011;8024;48.708;9.394;2022-07-29T03:10:01;10.60;;;9.70;;
15848;SDS011;8024;48.708;9.394;2022-07-29T03:12:29;9.77;;;8.97;;
15848;SDS011;8024;48.708;9.394;2022-07-29T03:14:57;9.90;;;8.90;;
15848;SDS011;8024;48.708;9.394;2022-07-29T03:17:26;10.53;;;9.20;;
15848;SDS011;8024;48.708;9.394;2022-07-29T03:19:56;10.27;;;9.33;;
15848;SDS011;8024;48.708;9.394;2022-07-29T03:22:25;10.90;;;10.00;;
15848;SDS011;8024;48.708;9.394;2022-07-29T03:24:53;9.97;;;8.33;;
15848;SDS011;8024;48.708;9.394;2022-07-29T03:27:20;11.27;;;9.33;;
15848;SDS011;8024;48.708;9.394;2022-07-29T03:29:47;10.03;;;9.03;;
15848;SDS011;8024;48.708;9.394;2022-07-29T03:32:14;10.43;;;8.90;;
15848;SDS011;8024;48.708;9.394;2022-07-29T03:34:42;10.13;;;8.90;;
15848;SDS011;8024;48.708;9.394;2022-07-29T03:37:09;10.20;;;9.30;;
15848;SDS011;8024;48.708;9.394;2022-07-29T03:39:38;9.57;;;8.77;;
15848;SDS011;8024;48.708;9.394;2022-07-29T03:42:08;10.67;;;8.80;;
15848;SDS011;8024;48.708;9.394;2022-07-29T03:44:39;12.53;;;9.53;;
15848;SDS011;8024;48.708;9.394;2022-07-29T03:47:07;11.40;;;9.67;;
15848;SDS011;8024;48.708;9.394;2022-07-29T03:49:36;11.00;;;9.90;;
15848;SDS011;8024;48.708;9.394;2022-07-29T03:52:05;10.10;;;9.07;;
15848;SDS011;8024;48.708;9.394;2022-07-29T03:54:32;10.17;;;9.17;;
15848;SDS011;8024;48.708;9.394;2022-07-29T03:57:01;11.70;;;10.60;;
15848;SDS011;8024;48.708;9.394;2022-07-29T03:59:29;10.73;;;9.57;;
15848;SDS011;8024;48.708;9.394;2022-07-29T04:01:59;10.43;;;9.43;;
15848;SDS011;8024;48.708;9.394;2022-07-29T04:04:28;10.30;;;9.50;;
15848;SDS011;8024;48.708;9.394;2022-07-29T04:06:58;10.70;;;9.70;;
15848;SDS011;8024;48.708;9.394;2022-07-29T04:09:25;10.53;;;9.73;;
15848;SDS011;8024;48.708;9.394;2022-07-29T04:11:52;10.30;;;9.30;;
15848;SDS011;8024;48.708;9.394;2022-07-29T04:14:21;11.50;;;10.33;;
15848;SDS011;8024;48.708;9.394;2022-07-29T04:16:48;10.83;;;9.70;;
15848;SDS011;8024;48.708;9.394;2022-07-29T04:19:15;12.10;;;10.27;;
15848;SDS011;8024;48.708;9.394;2022-07-29T04:21:42;11.73;;;10.60;;
15848;SDS011;8024;48.708;9.394;2022-07-29T04:24:10;15.97;;;10.77;;
15848;SDS011;8024;48.708;9.394;2022-07-29T04:26:37;12.30;;;10.27;;
15848;SDS011;8024;48.708;9.394;2022-07-29T04:29:04;15.30;;;10.90;;
15848;SDS011;8024;48.708;9.394;2022-07-29T04:31:33;12.17;;;10.97;;
15848;SDS011;8024;48.708;9.394;2022-07-29T04:34:00;12.40;;;11.30;;
15848;SDS011;8024;48.708;9.394;2022-07-29T04:36:27;12.03;;;11.13;;
15848;SDS011;8024;48.708;9.394;2022-07-29T04:38:55;12.03;;;11.03;;
15848;SDS011;8024;48.708;9.394;2022-07-29T04:41:22;12.43;;;11.43;;
15848;SDS011;8024;48.708;9.394;2022-07-29T04:43:49;11.67;;;10.57;;
15848;SDS011;8024;48.708;9.394;2022-07-29T04:46:16;12.10;;;10.90;;
15848;SDS011;8024;48.708;9.394;2022-07-29T04:48:46;11.93;;;10.90;;
15848;SDS011;8024;48.708;9.394;2022-07-29T04:51:13;14.63;;;10.93;;
15848;SDS011;8024;48.708;9.394;2022-07-29T04:53:41;13.10;;;10.87;;
15848;SDS011;8024;48.708;9.394;2022-07-29T04:56:08;11.27;;;10.27;;
15848;SDS011;8024;48.708;9.394;2022-07-29T04:58:35;11.37;;;10.23;;
15848;SDS011;8024;48.708;9.394;2022-07-29T05:01:03;15.20;;;9.03;;
15848;SDS011;8024;48.708;9.394;2022-07-29T05:03:30;11.30;;;9.37;;
15848;SDS011;8024;48.708;9.394;2022-07-29T05:05:59;11.30;;;10.10;;
15848;SDS011;8024;48.708;9.394;2022-07-29T05:08:26;9.03;;;8.13;;
15848;SDS011;8024;48.708;9.394;2022-07-29T05:10:53;12.40;;;8.37;;
15848;SDS011;8024;48.708;9.394;2022-07-29T05:13:20;8.97;;;8.23;;
15848;SDS011;8024;48.708;9.394;2022-07-29T05:15:47;9.07;;;8.17;;
15848;SDS011;8024;48.708;9.394;2022-07-29T05:18:15;10.47;;;8.60;;
15848;SDS011;8024;48.708;9.394;2022-07-29T05:20:42;8.80;;;8.00;;
15848;SDS011;8024;48.708;9.394;2022-07-29T05:23:11;9.63;;;8.73;;
15848;SDS011;8024;48.708;9.394;2022-07-29T05:25:39;8.87;;;8.03;;
15848;SDS011;8024;48.708;9.394;2022-07-29T05:28:06;8.43;;;7.47;;
15848;SDS011;8024;48.708;9.394;2022-07-29T05:30:34;9.00;;;8.20;;
15848;SDS011;8024;48.708;9.394;2022-07-29T05:33:01;10.23;;;8.33;;
15848;SDS011;8024;48.708;9.394;2022-07-29T05:35:28;11.00;;;8.30;;
15848;SDS011;8024;48.708;9.394;2022-07-29T05:37:55;8.60;;;7.93;;
15848;SDS011;8024;48.708;9.394;2022-07-29T05:40:24;8.70;;;7.97;;
15848;SDS011;8024;48.708;9.394;2022-07-29T05:42:51;9.20;;;8.43;;
15848;SDS011;8024;48.708;9.394;2022-07-29T05:45:18;8.90;;;7.53;;
15848;SDS011;8024;48.708;9.394;2022-07-29T05:47:45;8.23;;;7.53;;
15848;SDS011;8024;48.708;9.394;2022-07-29T05:50:13;8.37;;;7.77;;
15848;SDS011;8024;48.708;9.394;2022-07-29T05:52:40;8.90;;;8.10;;
15848;SDS011;8024;48.708;9.394;2022-07-29T05:55:07;9.30;;;8.40;;
15848;SDS011;8024;48.708;9.394;2022-07-29T05:57:36;7.83;;;7.13;;
15848;SDS011;8024;48.708;9.394;2022-07-29T06:00:04;8.40;;;7.70;;
15848;SDS011;8024;48.708;9.394;2022-07-29T06:02:32;8.17;;;7.47;;
15848;SDS011;8024;48.708;9.394;2022-07-29T06:04:59;8.83;;;8.03;;
15848;SDS011;8024;48.708;9.394;2022-07-29T06:07:27;7.50;;;6.87;;
15848;SDS011;8024;48.708;9.394;2022-07-29T06:09:54;7.87;;;7.27;;
15848;SDS011;8024;48.708;9.394;2022-07-29T06:12:21;7.73;;;7.20;;
15848;SDS011;8024;48.708;9.394;2022-07-29T06:14:50;9.00;;;8.03;;
15848;SDS011;8024;48.708;9.394;2022-07-29T06:17:17;7.83;;;7.13;;
15848;SDS011;8024;48.708;9.394;2022-07-29T06:19:44;7.97;;;7.33;;
15848;SDS011;8024;48.708;9.394;2022-07-29T06:22:11;6.80;;;6.20;;
15848;SDS011;8024;48.708;9.394;2022-07-29T06:24:40;8.47;;;6.87;;
15848;SDS011;8024;48.708;9.394;2022-07-29T06:27:09;8.53;;;7.77;;
15848;SDS011;8024;48.708;9.394;2022-07-29T06:29:36;7.53;;;7.03;;
15848;SDS011;8024;48.708;9.394;2022-07-29T06:32:05;8.63;;;7.93;;
15848;SDS011;8024;48.708;9.394;2022-07-29T06:34:34;8.03;;;7.43;;
15848;SDS011;8024;48.708;9.394;2022-07-29T06:37:05;8.47;;;7.70;;
15848;SDS011;8024;48.708;9.394;2022-07-29T06:39:33;7.60;;;7.00;;
15848;SDS011;8024;48.708;9.394;2022-07-29T06:42:01;8.57;;;7.87;;
15848;SDS011;8024;48.708;9.394;2022-07-29T06:44:28;7.50;;;6.90;;
15848;SDS011;8024;48.708;9.394;2022-07-29T06:46:56;7.33;;;6.63;;
15848;SDS011;8024;48.708;9.394;2022-07-29T06:49:24;7.70;;;7.10;;
15848;SDS011;8024;48.708;9.394;2022-07-29T06:51:52;7.47;;;6.77;;
15848;SDS011;8024;48.708;9.394;2022-07-29T06:54:20;7.73;;;7.03;;
15848;SDS011;8024;48.708;9.394;2022-07-29T06:56:47;7.50;;;6.80;;
15848;SDS011;8024;48.708;9.394;2022-07-29T06:59:14;7.03;;;6.37;;
15848;SDS011;8024;48.708;9.394;2022-07-29T07:01:42;6.67;;;6.17;;
15848;SDS011;8024;48.708;9.394;2022-07-29T07:04:10;6.13;;;5.63;;
15848;SDS011;8024;48.708;9.394;2022-07-29T07:06:39;5.97;;;5.47;;
15848;SDS011;8024;48.708;9.394;2022-07-29T07:09:06;8.17;;;5.53;;
15848;SDS011;8024;48.708;9.394;2022-07-29T07:11:34;7.00;;;5.53;;
15848;SDS011;8024;48.708;9.394;2022-07-29T07:14:01;5.70;;;4.97;;
15848;SDS011;8024;48.708;9.394;2022-07-29T07:16:28;5.30;;;4.80;;
15848;SDS011;8024;48.708;9.394;2022-07-29T07:18:56;5.97;;;5.47;;
15848;SDS011;8024;48.708;9.394;2022-07-29T07:21:23;5.83;;;5.43;;
15848;SDS011;8024;48.708;9.394;2022-07-29T07:23:51;5.57;;;5.17;;
15848;SDS011;8024;48.708;9.394;2022-07-29T07:26:19;5.97;;;5.40;;
15848;SDS011;8024;48.708;9.394;2022-07-29T07:28:46;8.00;;;5.30;;
15848;SDS011;8024;48.708;9.394;2022-07-29T07:31:13;6.53;;;5.40;;
15848;SDS011;8024;48.708;9.394;2022-07-29T07:33:40;5.77;;;5.27;;
15848;SDS011;8024;48.708;9.394;2022-07-29T07:36:08;4.67;;;4.30;;
15848;SDS011;8024;48.708;9.394;2022-07-29T07:38:35;5.67;;;4.57;;
15848;SDS011;8024;48.708;9.394;2022-07-29T07:41:04;5.07;;;4.68;;
15848;SDS011;8024;48.708;9.394;2022-07-29T07:43:31;4.50;;;4.10;;
15848;SDS011;8024;48.708;9.394;2022-07-29T07:45:58;6.07;;;5.00;;
15848;SDS011;8024;48.708;9.394;2022-07-29T07:48:26;4.73;;;4.37;;
15848;SDS011;8024;48.708;9.394;2022-07-29T07:50:53;5.10;;;4.47;;
15848;SDS011;8024;48.708;9.394;2022-07-29T07:53:20;7.10;;;4.40;;
15848;SDS011;8024;48.708;9.394;2022-07-29T07:55:48;5.93;;;4.93;;
15848;SDS011;8024;48.708;9.394;2022-07-29T07:58:16;5.20;;;3.90;;
15848;SDS011;8024;48.708;9.394;2022-07-29T08:00:44;4.80;;;4.33;;
15848;SDS011;8024;48.708;9.394;2022-07-29T08:03:11;4.40;;;4.10;;
15848;SDS011;8024;48.708;9.394;2022-07-29T08:05:38;5.07;;;4.67;;
15848;SDS011;8024;48.708;9.394;2022-07-29T08:08:06;4.53;;;4.17;;
15848;SDS011;8024;48.708;9.394;2022-07-29T08:10:33;5.83;;;4.00;;
15848;SDS011;8024;48.708;9.394;2022-07-29T08:13:20;4.10;;;3.63;;
15848;SDS011;8024;48.708;9.394;2022-07-29T08:15:49;4.33;;;3.60;;
15848;SDS011;8024;48.708;9.394;2022-07-29T08:18:22;4.07;;;3.70;;
15848;SDS011;8024;48.708;9.394;2022-07-29T08:20:50;3.50;;;3.20;;
15848;SDS011;8024;48.708;9.394;2022-07-29T08:23:17;6.82;;;4.22;;
15848;SDS011;8024;48.708;9.394;2022-07-29T08:25:45;5.13;;;3.53;;
15848;SDS011;8024;48.708;9.394;2022-07-29T08:28:12;4.63;;;4.10;;
15848;SDS011;8024;48.708;9.394;2022-07-29T08:30:40;7.03;;;4.70;;
15848;SDS011;8024;48.708;9.394;2022-07-29T08:33:08;4.97;;;4.47;;
15848;SDS011;8024;48.708;9.394;2022-07-29T08:35:35;4.97;;;4.57;;
15848;SDS011;8024;48.708;9.394;2022-07-29T08:38:02;4.80;;;4.40;;
15848;SDS011;8024;48.708;9.394;2022-07-29T08:40:29;5.33;;;4.93;;
15848;SDS011;8024;48.708;9.394;2022-07-29T08:42:57;5.10;;;4.70;;
15848;SDS011;8024;48.708;9.394;2022-07-29T08:45:24;5.00;;;4.60;;
15848;SDS011;8024;48.708;9.394;2022-07-29T08:47:54;6.07;;;5.10;;
15848;SDS011;8024;48.708;9.394;2022-07-29T08:50:22;5.25;;;4.38;;
15848;SDS011;8024;48.708;9.394;2022-07-29T08:52:49;7.63;;;5.22;;
15848;SDS011;8024;48.708;9.394;2022-07-29T08:55:17;5.07;;;4.67;;
15848;SDS011;8024;48.708;9.394;2022-07-29T08:57:45;9.27;;;5.30;;
15848;SDS011;8024;48.708;9.394;2022-07-29T09:00:13;5.50;;;5.00;;
15848;SDS011;8024;48.708;9.394;2022-07-29T09:02:42;5.57;;;5.15;;
15848;SDS011;8024;48.708;9.394;2022-07-29T09:05:17;4.50;;;4.10;;
15848;SDS011;8024;48.708;9.394;2022-07-29T09:07:45;4.68;;;4.25;;
15848;SDS011;8024;48.708;9.394;2022-07-29T09:10:13;5.43;;;4.30;;
15848;SDS011;8024;48.708;9.394;2022-07-29T09:12:40;6.10;;;4.55;;
15848;SDS011;8024;48.708;9.394;2022-07-29T09:15:07;4.68;;;4.25;;
15848;SDS011;8024;48.708;9.394;2022-07-29T09:17:41;5.95;;;5.03;;
15848;SDS011;8024;48.708;9.394;2022-07-29T09:20:10;5.18;;;4.63;;
15848;SDS011;8024;48.708;9.394;2022-07-29T09:22:40;4.88;;;4.47;;
15848;SDS011;8024;48.708;9.394;2022-07-29T09:25:07;5.03;;;4.57;;
15848;SDS011;8024;48.708;9.394;2022-07-29T09:27:37;5.43;;;4.85;;
15848;SDS011;8024;48.708;9.394;2022-07-29T09:30:05;4.78;;;4.30;;
15848;SDS011;8024;48.708;9.394;2022-07-29T09:32:53;4.18;;;3.80;;
15848;SDS011;8024;48.708;9.394;2022-07-29T09:35:22;4.80;;;4.28;;
15848;SDS011;8024;48.708;9.394;2022-07-29T09:37:52;4.40;;;4.00;;
15848;SDS011;8024;48.708;9.394;2022-07-29T09:40:21;4.78;;;4.38;;
15848;SDS011;8024;48.708;9.394;2022-07-29T09:42:50;4.90;;;4.45;;
15848;SDS011;8024;48.708;9.394;2022-07-29T09:45:26;6.55;;;4.47;;
15848;SDS011;8024;48.708;9.394;2022-07-29T09:47:55;4.88;;;4.45;;
15848;SDS011;8024;48.708;9.394;2022-07-29T09:50:34;4.70;;;4.22;;
15848;SDS011;8024;48.708;9.394;2022-07-29T09:53:03;6.07;;;5.07;;
15848;SDS011;8024;48.708;9.394;2022-07-29T09:55:31;4.80;;;4.40;;
15848;SDS011;8024;48.708;9.394;2022-07-29T10:00:43;4.40;;;4.00;;
15848;SDS011;8024;48.708;9.394;2022-07-29T10:03:12;4.90;;;4.57;;
15848;SDS011;8024;48.708;9.394;2022-07-29T10:05:40;4.88;;;4.43;;
15848;SDS011;8024;48.708;9.394;2022-07-29T10:08:09;5.07;;;4.53;;
15848;SDS011;8024;48.708;9.394;2022-07-29T10:10:38;4.00;;;3.70;;
15848;SDS011;8024;48.708;9.394;2022-07-29T10:13:08;4.88;;;4.38;;
15848;SDS011;8024;48.708;9.394;2022-07-29T10:15:37;5.57;;;4.68;;
15848;SDS011;8024;48.708;9.394;2022-07-29T10:18:09;4.35;;;3.95;;
15848;SDS011;8024;48.708;9.394;2022-07-29T10:20:37;4.78;;;4.20;;
15848;SDS011;8024;48.708;9.394;2022-07-29T10:23:05;6.10;;;4.10;;
15848;SDS011;8024;48.708;9.394;2022-07-29T10:25:33;6.55;;;4.65;;
15848;SDS011;8024;48.708;9.394;2022-07-29T10:28:01;4.85;;;3.88;;
15848;SDS011;8024;48.708;9.394;2022-07-29T10:30:28;4.78;;;4.47;;
15848;SDS011;8024;48.708;9.394;2022-07-29T10:33:09;5.40;;;4.95;;
15848;SDS011;8024;48.708;9.394;2022-07-29T10:35:57;6.10;;;3.85;;
15848;SDS011;8024;48.708;9.394;2022-07-29T10:38:45;4.15;;;3.50;;
15848;SDS011;8024;48.708;9.394;2022-07-29T10:41:37;5.63;;;3.97;;
15848;SDS011;8024;48.708;9.394;2022-07-29T10:44:13;4.38;;;3.80;;
15848;SDS011;8024;48.708;9.394;2022-07-29T10:46:42;4.53;;;4.13;;
15848;SDS011;8024;48.708;9.394;2022-07-29T10:49:11;4.03;;;3.67;;
15848;SDS011;8024;48.708;9.394;2022-07-29T10:51:57;5.25;;;4.80;;
15848;SDS011;8024;48.708;9.394;2022-07-29T10:54:39;6.20;;;4.85;;
15848;SDS011;8024;48.708;9.394;2022-07-29T10:57:17;5.68;;;4.05;;
15848;SDS011;8024;48.708;9.394;2022-07-29T10:59:46;5.93;;;5.35;;
15848;SDS011;8024;48.708;9.394;2022-07-29T11:05:08;5.38;;;3.72;;
15848;SDS011;8024;48.708;9.394;2022-07-29T11:07:37;3.95;;;3.63;;
15848;SDS011;8024;48.708;9.394;2022-07-29T11:10:21;4.05;;;3.55;;
15848;SDS011;8024;48.708;9.394;2022-07-29T11:12:51;4.93;;;3.60;;
15848;SDS011;8024;48.708;9.394;2022-07-29T11:15:18;3.58;;;3.28;;
15848;SDS011;8024;48.708;9.394;2022-07-29T11:20:30;3.83;;;3.55;;
15848;SDS011;8024;48.708;9.394;2022-07-29T11:22:58;6.10;;;4.20;;
15848;SDS011;8024;48.708;9.394;2022-07-29T11:25:26;6.18;;;4.10;;
15848;SDS011;8024;48.708;9.394;2022-07-29T11:28:10;5.28;;;3.58;;
15848;SDS011;8024;48.708;9.394;2022-07-29T11:30:48;5.35;;;3.75;;
15848;SDS011;8024;48.708;9.394;2022-07-29T11:33:26;5.43;;;3.97;;
15848;SDS011;8024;48.708;9.394;2022-07-29T11:36:07;5.85;;;4.05;;
15848;SDS011;8024;48.708;9.394;2022-07-29T11:38:35;2.88;;;1.70;;
15848;SDS011;8024;48.708;9.394;2022-07-29T11:41:19;2.80;;;1.75;;
15848;SDS011;8024;48.708;9.394;2022-07-29T11:43:50;3.65;;;2.05;;
15848;SDS011;8024;48.708;9.394;2022-07-29T11:49:10;0.10;;;0.10;;
15848;SDS011;8024;48.708;9.394;2022-07-29T11:51:38;0.03;;;0.03;;
15848;SDS011;8024;48.708;9.394;2022-07-29T11:54:07;0.10;;;0.10;;
15848;SDS011;8024;48.708;9.394;2022-07-29T11:56:39;0.10;;;0.10;;
15848;SDS011;8024;48.708;9.394;2022-07-29T11:59:12;0.20;;;0.20;;
15848;SDS011;8024;48.708;9.394;2022-07-29T12:01:51;0.10;;;0.10;;
15848;SDS011;8024;48.708;9.394;2022-07-29T12:04:19;0.13;;;0.13;;
15848;SDS011;8024;48.708;9.394;2022-07-29T12:06:48;0.10;;;0.10;;
15848;SDS011;8024;48.708;9.394;2022-07-29T12:09:16;0.10;;;0.10;;
15848;SDS011;8024;48.708;9.394;2022-07-29T12:11:43;0.10;;;0.10;;
15848;SDS011;8024;48.708;9.394;2022-07-29T12:14:25;0.10;;;0.10;;
15848;SDS011;8024;48.708;9.394;2022-07-29T12:16:53;0.10;;;0.10;;
15848;SDS011;8024;48.708;9.394;2022-07-29T12:19:20;0.00;;;0.00;;
15848;SDS011;8024;48.708;9.394;2022-07-29T12:21:48;0.73;;;0.73;;
15848;SDS011;8024;48.708;9.394;2022-07-29T12:24:17;0.13;;;0.13;;
15848;SDS011;8024;48.708;9.394;2022-07-29T12:26:51;0.40;;;0.40;;
15848;SDS011;8024;48.708;9.394;2022-07-29T12:29:19;0.10;;;0.10;;
15848;SDS011;8024;48.708;9.394;2022-07-29T12:31:51;0.10;;;0.10;;
15848;SDS011;8024;48.708;9.394;2022-07-29T12:34:20;0.10;;;0.10;;
15848;SDS011;8024;48.708;9.394;2022-07-29T12:36:49;0.10;;;0.10;;
15848;SDS011;8024;48.708;9.394;2022-07-29T12:39:17;0.10;;;0.10;;
15848;SDS011;8024;48.708;9.394;2022-07-29T12:41:44;0.30;;;0.30;;
15848;SDS011;8024;48.708;9.394;2022-07-29T12:44:12;0.10;;;0.10;;
15848;SDS011;8024;48.708;9.394;2022-07-29T12:46:39;0.60;;;0.60;;
15848;SDS011;8024;48.708;9.394;2022-07-29T12:49:08;0.10;;;0.10;;
15848;SDS011;8024;48.708;9.394;2022-07-29T12:51:35;0.30;;;0.30;;
15848;SDS011;8024;48.708;9.394;2022-07-29T12:54:06;0.10;;;0.10;;
15848;SDS011;8024;48.708;9.394;2022-07-29T12:56:35;0.53;;;0.37;;
15848;SDS011;8024;48.708;9.394;2022-07-29T12:59:10;0.10;;;0.10;;
15848;SDS011;8024;48.708;9.394;2022-07-29T13:01:39;0.23;;;0.23;;
15848;SDS011;8024;48.708;9.394;2022-07-29T13:04:07;0.10;;;0.10;;
15848;SDS011;8024;48.708;9.394;2022-07-29T13:06:36;0.13;;;0.13;;
15848;SDS011;8024;48.708;9.394;2022-07-29T13:09:06;0.83;;;0.83;;
15848;SDS011;8024;48.708;9.394;2022-07-29T13:11:36;0.10;;;0.10;;
15848;SDS011;8024;48.708;9.394;2022-07-29T13:14:04;0.10;;;0.10;;
15848;SDS011;8024;48.708;9.394;2022-07-29T13:16:33;6.00;;;1.60;;
15848;SDS011;8024;48.708;9.394;2022-07-29T13:21:58;0.30;;;0.30;;
15848;SDS011;8024;48.708;9.394;2022-07-29T13:24:25;0.10;;;0.10;;
15848;SDS011;8024;48.708;9.394;2022-07-29T13:26:53;0.10;;;0.10;;
15848;SDS011;8024;48.708;9.394;2022-07-29T13:29:20;0.10;;;0.10;;
15848;SDS011;8024;48.708;9.394;2022-07-29T13:31:47;0.10;;;0.10;;
15848;SDS011;8024;48.708;9.394;2022-07-29T13:34:14;0.50;;;0.50;;
15848;SDS011;8024;48.708;9.394;2022-07-29T13:36:45;0.10;;;0.10;;
15848;SDS011;8024;48.708;9.394;2022-07-29T13:39:12;0.30;;;0.30;;
15848;SDS011;8024;48.708;9.394;2022-07-29T13:41:39;0.40;;;0.40;;
15848;SDS011;8024;48.708;9.394;2022-07-29T13:44:06;0.10;;;0.10;;
15848;SDS011;8024;48.708;9.394;2022-07-29T13:46:33;0.30;;;0.30;;
15848;SDS011;8024;48.708;9.394;2022-07-29T13:49:00;0.20;;;0.20;;
15848;SDS011;8024;48.708;9.394;2022-07-29T13:51:31;0.43;;;0.43;;
15848;SDS011;8024;48.708;9.394;2022-07-29T13:53:59;0.67;;;0.67;;
15848;SDS011;8024;48.708;9.394;2022-07-29T13:56:27;0.00;;;0.00;;
15848;SDS011;8024;48.708;9.394;2022-07-29T13:58:54;0.10;;;0.10;;
15848;SDS011;8024;48.708;9.394;2022-07-29T14:01:22;0.00;;;0.00;;
15848;SDS011;8024;48.708;9.394;2022-07-29T14:03:50;0.40;;;0.40;;
15848;SDS011;8024;48.708;9.394;2022-07-29T14:06:17;0.13;;;0.13;;
15848;SDS011;8024;48.708;9.394;2022-07-29T14:08:44;0.00;;;0.00;;
15848;SDS011;8024;48.708;9.394;2022-07-29T14:11:13;0.47;;;0.47;;
15848;SDS011;8024;48.708;9.394;2022-07-29T14:13:40;2.37;;;0.50;;
15848;SDS011;8024;48.708;9.394;2022-07-29T14:16:07;0.10;;;0.10;;
15848;SDS011;8024;48.708;9.394;2022-07-29T14:18:34;0.10;;;0.10;;
15848;SDS011;8024;48.708;9.394;2022-07-29T14:21:02;0.00;;;0.00;;
15848;SDS011;8024;48.708;9.394;2022-07-29T14:23:29;0.00;;;0.00;;
15848;SDS011;8024;48.708;9.394;2022-07-29T14:25:56;0.00;;;0.00;;
15848;SDS011;8024;48.708;9.394;2022-07-29T14:28:25;0.20;;;0.20;;
15848;SDS011;8024;48.708;9.394;2022-07-29T14:30:52;0.20;;;0.20;;
15848;SDS011;8024;48.708;9.394;2022-07-29T14:33:19;3.10;;;0.67;;
15848;SDS011;8024;48.708;9.394;2022-07-29T14:35:46;0.20;;;0.20;;
15848;SDS011;8024;48.708;9.394;2022-07-29T14:38:13;0.03;;;0.03;;
15848;SDS011;8024;48.708;9.394;2022-07-29T14:40:41;0.10;;;0.10;;
15848;SDS011;8024;48.708;9.394;2022-07-29T14:43:08;0.20;;;0.20;;
15848;SDS011;8024;48.708;9.394;2022-07-29T14:45:36;1.30;;;0.50;;
15848;SDS011;8024;48.708;9.394;2022-07-29T14:48:04;2.37;;;0.63;;
15848;SDS011;8024;48.708;9.394;2022-07-29T14:50:31;0.00;;;0.00;;
15848;SDS011;8024;48.708;9.394;2022-07-29T14:52:59;0.30;;;0.30;;
15848;SDS011;8024;48.708;9.394;2022-07-29T14:55:26;0.33;;;0.30;;
15848;SDS011;8024;48.708;9.394;2022-07-29T14:57:54;0.27;;;0.27;;
15848;SDS011;8024;48.708;9.394;2022-07-29T15:00:21;0.20;;;0.20;;
15848;SDS011;8024;48.708;9.394;2022-07-29T15:02:50;0.00;;;0.00;;
15848;SDS011;8024;48.708;9.394;2022-07-29T15:05:17;0.90;;;0.67;;
15848;SDS011;8024;48.708;9.394;2022-07-29T15:07:44;0.30;;;0.30;;
15848;SDS011;8024;48.708;9.394;2022-07-29T15:10:11;0.87;;;0.87;;
15848;SDS011;8024;48.708;9.394;2022-07-29T15:12:39;1.13;;;1.10;;
15848;SDS011;8024;48.708;9.394;2022-07-29T15:15:06;0.30;;;0.30;;
15848;SDS011;8024;48.708;9.394;2022-07-29T15:17:33;0.20;;;0.20;;
15848;SDS011;8024;48.708;9.394;2022-07-29T15:20:02;0.07;;;0.07;;
15848;SDS011;8024;48.708;9.394;2022-07-29T15:22:31;0.30;;;0.30;;
15848;SDS011;8024;48.708;9.394;2022-07-29T15:24:58;0.43;;;0.43;;
15848;SDS011;8024;48.708;9.394;2022-07-29T15:27:25;0.43;;;0.43;;